createdAt,value
2022-11-30T00:00:22.151Z,101361.63
2022-11-30T00:02:54.006Z,101334.53
2022-11-30T00:05:21.048Z,101317.03
2022-11-30T00:07:47.602Z,101345.34
2022-11-30T00:10:14.253Z,101312.47
2022-11-30T00:12:43.581Z,101315.09
2022-11-30T00:15:14.015Z,101353.78
2022-11-30T00:17:41.201Z,101359.22
2022-11-30T00:20:08.791Z,101366.91
2022-11-30T00:22:45.359Z,101346.72
2022-11-30T00:25:11.869Z,101369.31
2022-11-30T00:27:38.370Z,101365.00
2022-11-30T00:30:06.084Z,101358.31
2022-11-30T00:32:33.145Z,101353.78
2022-11-30T00:34:59.682Z,101362.59
2022-11-30T00:37:26.570Z,101349.47
2022-11-30T00:39:53.022Z,101362.31
2022-11-30T00:42:19.504Z,101294.19
2022-11-30T00:44:47.110Z,101358.28
2022-11-30T00:47:13.781Z,101351.78
2022-11-30T00:49:40.233Z,101349.84
2022-11-30T00:52:06.839Z,101347.28
2022-11-30T00:54:33.570Z,101349.47
2022-11-30T00:57:00.119Z,101351.69
2022-11-30T00:59:26.574Z,101315.78
2022-11-30T01:01:54.795Z,101347.41
2022-11-30T01:04:21.625Z,101352.16
2022-11-30T01:06:48.884Z,101352.25
2022-11-30T01:09:15.337Z,101346.91
2022-11-30T01:11:41.894Z,101350.19
2022-11-30T01:14:08.551Z,101293.38
2022-11-30T01:16:35.011Z,101305.69
2022-11-30T01:19:01.789Z,101342.16
2022-11-30T01:21:28.920Z,101347.50
2022-11-30T01:23:55.995Z,101353.78
2022-11-30T01:26:23.186Z,101364.50
2022-11-30T01:28:54.241Z,101362.53
2022-11-30T01:31:23.466Z,101344.56
2022-11-30T01:33:51.605Z,101382.06
2022-11-30T01:36:20.469Z,101383.56
2022-11-30T01:38:52.087Z,101383.66
2022-11-30T01:41:21.909Z,101355.22
2022-11-30T01:44:19.586Z,101377.00
2022-11-30T01:46:55.213Z,101378.47
2022-11-30T01:49:33.488Z,101356.03
2022-11-30T01:52:07.394Z,101341.91
2022-11-30T01:54:41.227Z,101382.59
2022-11-30T01:57:21.176Z,101387.53
2022-11-30T01:59:48.752Z,101388.03
2022-11-30T02:02:15.789Z,101360.28
2022-11-30T02:04:42.337Z,101388.13
2022-11-30T02:07:09.058Z,101383.03
2022-11-30T02:09:44.548Z,101396.84
2022-11-30T02:12:20.813Z,101392.84
2022-11-30T02:14:50.270Z,101365.03
2022-11-30T02:17:20.268Z,101386.41
2022-11-30T02:20:05.751Z,101386.88
2022-11-30T02:22:43.521Z,101383.38
2022-11-30T02:25:15.790Z,101376.06
2022-11-30T02:27:45.266Z,101383.50
2022-11-30T02:30:14.300Z,101386.31
2022-11-30T02:32:59.517Z,101384.44
2022-11-30T02:35:29.718Z,101339.88
2022-11-30T02:37:57.408Z,101380.75
2022-11-30T02:40:24.004Z,101376.94
2022-11-30T02:42:52.500Z,101357.50
2022-11-30T02:45:42.111Z,101376.63
2022-11-30T02:48:09.652Z,101343.97
2022-11-30T02:50:47.731Z,101384.50
2022-11-30T02:53:14.345Z,101370.44
2022-11-30T02:55:40.911Z,101343.56
2022-11-30T02:58:07.758Z,101391.22
2022-11-30T03:00:34.268Z,101391.84
2022-11-30T03:03:00.853Z,101383.19
2022-11-30T03:05:27.540Z,101376.22
2022-11-30T03:07:54.045Z,101404.44
2022-11-30T03:10:20.783Z,101415.28
2022-11-30T03:12:47.350Z,101397.44
2022-11-30T03:15:13.903Z,101411.81
2022-11-30T03:17:40.373Z,101373.19
2022-11-30T03:20:07.525Z,101410.53
2022-11-30T03:22:34.053Z,101374.47
2022-11-30T03:25:00.676Z,101412.97
2022-11-30T03:27:27.110Z,101411.50
2022-11-30T03:29:53.723Z,101412.53
2022-11-30T03:32:20.199Z,101376.09
2022-11-30T03:34:46.868Z,101383.44
2022-11-30T03:37:13.598Z,101408.19
2022-11-30T03:39:40.046Z,101409.94
2022-11-30T03:42:06.704Z,101379.94
2022-11-30T03:44:33.162Z,101407.88
2022-11-30T03:46:59.960Z,101416.72
2022-11-30T03:49:26.532Z,101372.78
2022-11-30T03:51:53.019Z,101372.25
2022-11-30T03:54:19.559Z,101352.38
2022-11-30T03:56:46.078Z,101419.22
2022-11-30T03:59:12.518Z,101410.03
2022-11-30T04:01:43.058Z,101422.63
2022-11-30T04:04:11.584Z,101424.88
2022-11-30T04:06:38.488Z,101421.97
2022-11-30T04:09:05.002Z,101433.41
2022-11-30T04:11:31.624Z,101378.63
2022-11-30T04:13:59.393Z,101370.94
2022-11-30T04:16:26.077Z,101425.22
2022-11-30T04:18:52.611Z,101426.31
2022-11-30T04:21:19.264Z,101380.50
2022-11-30T04:23:45.746Z,101400.59
2022-11-30T04:26:14.014Z,101427.53
2022-11-30T04:28:41.134Z,101404.66
2022-11-30T04:31:08.219Z,101395.34
2022-11-30T04:33:34.764Z,101410.25
2022-11-30T04:36:04.068Z,101426.22
2022-11-30T04:38:31.029Z,101377.94
2022-11-30T04:40:57.669Z,101434.25
2022-11-30T04:43:24.868Z,101433.47
2022-11-30T04:45:51.720Z,101413.56
2022-11-30T04:48:19.142Z,101447.41
2022-11-30T04:50:45.623Z,101441.16
2022-11-30T04:53:12.325Z,101384.03
2022-11-30T04:55:39.137Z,101444.78
2022-11-30T04:58:06.410Z,101441.00
2022-11-30T05:00:33.447Z,101444.59
2022-11-30T05:03:00.003Z,101418.16
2022-11-30T05:05:27.109Z,101414.84
2022-11-30T05:07:57.849Z,101443.38
2022-11-30T05:10:25.140Z,101444.66
2022-11-30T05:12:51.966Z,101430.28
2022-11-30T05:15:18.685Z,101452.03
2022-11-30T05:17:45.169Z,101451.59
2022-11-30T05:20:11.897Z,101466.75
2022-11-30T05:22:38.408Z,101455.66
2022-11-30T05:25:05.315Z,101459.22
2022-11-30T05:27:31.877Z,101459.53
2022-11-30T05:29:58.391Z,101419.13
2022-11-30T05:32:24.880Z,101450.34
2022-11-30T05:34:52.089Z,101452.66
2022-11-30T05:37:19.677Z,101456.78
2022-11-30T05:39:46.193Z,101457.63
2022-11-30T05:42:13.712Z,101455.44
2022-11-30T05:44:40.179Z,101462.94
2022-11-30T05:47:06.818Z,101463.88
2022-11-30T05:49:33.566Z,101413.19
2022-11-30T05:52:00.169Z,101331.16
2022-11-30T05:54:26.939Z,101440.59
2022-11-30T05:56:55.250Z,101461.19
2022-11-30T05:59:22.805Z,101395.69
2022-11-30T06:01:51.965Z,101467.63
2022-11-30T06:04:18.748Z,101427.47
2022-11-30T06:06:45.196Z,101463.22
2022-11-30T06:09:11.703Z,101468.06
2022-11-30T06:11:38.240Z,101428.91
2022-11-30T06:14:04.724Z,101416.28
2022-11-30T06:16:31.654Z,101462.53
2022-11-30T06:18:58.157Z,101438.19
2022-11-30T06:21:25.129Z,101469.88
2022-11-30T06:23:52.460Z,101463.69
2022-11-30T06:26:19.787Z,101466.25
2022-11-30T06:28:48.532Z,101474.13
2022-11-30T06:31:16.243Z,101472.19
2022-11-30T06:33:42.866Z,101457.78
2022-11-30T06:36:09.738Z,101476.97
2022-11-30T06:38:36.239Z,101474.72
2022-11-30T06:41:08.161Z,101450.78
2022-11-30T06:43:39.188Z,101473.19
2022-11-30T06:46:06.941Z,101465.88
2022-11-30T06:48:34.754Z,101472.19
2022-11-30T06:51:05.399Z,101479.88
2022-11-30T06:53:31.979Z,101478.63
2022-11-30T06:55:58.486Z,101479.34
2022-11-30T06:58:25.362Z,101445.03
2022-11-30T07:00:51.938Z,101483.31
2022-11-30T07:03:18.587Z,101404.25
2022-11-30T07:05:46.429Z,101486.63
2022-11-30T07:08:14.657Z,101492.22
2022-11-30T07:10:45.776Z,101495.31
2022-11-30T07:13:18.049Z,101491.78
2022-11-30T07:15:44.980Z,101463.84
2022-11-30T07:18:11.904Z,101495.72
2022-11-30T07:20:39.054Z,101497.75
2022-11-30T07:23:24.250Z,101499.97
2022-11-30T07:26:06.518Z,101497.84
2022-11-30T07:28:41.453Z,101510.94
2022-11-30T07:31:24.604Z,101515.16
2022-11-30T07:33:51.551Z,101512.59
2022-11-30T07:36:19.723Z,101506.88
2022-11-30T07:38:46.371Z,101476.34
2022-11-30T07:41:13.256Z,101516.53
2022-11-30T07:43:40.344Z,101513.69
2022-11-30T07:46:07.216Z,101516.44
2022-11-30T07:48:35.192Z,101496.66
2022-11-30T07:51:06.633Z,101525.28
2022-11-30T07:53:33.128Z,101488.16
2022-11-30T07:56:07.986Z,101534.38
2022-11-30T07:58:34.791Z,101529.34
2022-11-30T08:01:06.577Z,101531.13
2022-11-30T08:03:37.130Z,101483.81
2022-11-30T08:06:30.817Z,101533.16
2022-11-30T08:08:59.641Z,101531.59
2022-11-30T08:11:28.459Z,101534.88
2022-11-30T08:13:55.348Z,101482.75
2022-11-30T08:16:24.487Z,101543.63
2022-11-30T08:18:51.467Z,101539.75
2022-11-30T08:21:20.005Z,101543.38
2022-11-30T08:23:51.818Z,101550.81
2022-11-30T08:26:19.363Z,101551.03
2022-11-30T08:28:47.410Z,101549.13
2022-11-30T08:31:20.669Z,101543.19
2022-11-30T08:33:47.562Z,101546.56
2022-11-30T08:36:19.861Z,101547.22
2022-11-30T08:38:46.886Z,101541.25
2022-11-30T08:41:15.737Z,101546.03
2022-11-30T08:43:42.870Z,101513.06
2022-11-30T08:46:42.623Z,101549.09
2022-11-30T08:49:19.719Z,101550.38
2022-11-30T08:52:15.848Z,101548.69
2022-11-30T08:54:33.695Z,101557.09
2022-11-30T08:57:00.186Z,101553.69
2022-11-30T08:59:26.716Z,101567.53
2022-11-30T09:01:53.337Z,101562.97
2022-11-30T09:04:19.998Z,101549.88
2022-11-30T09:06:46.453Z,101539.97
2022-11-30T09:09:13.700Z,101564.97
2022-11-30T09:11:40.223Z,101576.13
2022-11-30T09:14:09.021Z,101578.78
2022-11-30T09:16:35.863Z,101569.94
2022-11-30T09:19:02.475Z,101584.66
2022-11-30T09:21:29.530Z,101535.50
2022-11-30T09:23:56.549Z,101584.03
2022-11-30T09:26:25.407Z,101586.16
2022-11-30T09:28:53.202Z,101588.91
2022-11-30T09:31:22.098Z,101586.59
2022-11-30T09:33:48.970Z,101577.63
2022-11-30T09:36:22.312Z,101579.44
2022-11-30T09:38:49.194Z,101583.59
2022-11-30T09:41:46.659Z,101577.84
2022-11-30T09:44:27.081Z,101584.59
2022-11-30T09:46:59.631Z,101574.53
2022-11-30T09:49:34.216Z,101575.38
2022-11-30T09:52:04.437Z,101584.91
2022-11-30T09:54:37.468Z,101587.38
2022-11-30T09:57:33.569Z,101588.59
2022-11-30T10:00:04.063Z,101589.84
2022-11-30T10:02:33.110Z,101582.34
2022-11-30T10:05:00.600Z,101590.56
2022-11-30T10:08:02.893Z,101582.91
2022-11-30T10:10:41.919Z,101589.28
2022-11-30T10:14:13.282Z,101581.63
2022-11-30T10:17:11.952Z,101583.97
2022-11-30T10:22:40.023Z,101579.78
2022-11-30T10:25:12.472Z,101578.56
2022-11-30T10:28:18.053Z,101588.84
2022-11-30T10:30:49.515Z,101579.47
2022-11-30T10:33:20.982Z,101582.59
2022-11-30T10:35:55.356Z,101554.72
2022-11-30T10:38:31.894Z,101559.72
2022-11-30T10:41:15.716Z,101570.16
2022-11-30T10:43:46.335Z,101556.47
2022-11-30T10:46:22.785Z,101582.19
2022-11-30T10:48:57.438Z,101541.84
2022-11-30T10:51:25.275Z,101578.78
2022-11-30T10:53:51.727Z,101576.03
2022-11-30T10:56:18.211Z,101559.56
2022-11-30T10:58:51.002Z,101580.56
2022-11-30T11:01:39.272Z,101581.16
2022-11-30T11:04:08.946Z,101567.56
2022-11-30T11:06:35.989Z,101561.41
2022-11-30T11:09:24.541Z,101563.28
2022-11-30T11:11:55.371Z,101562.53
2022-11-30T11:14:23.574Z,101559.16
2022-11-30T11:16:57.274Z,101552.03
2022-11-30T11:19:42.776Z,101550.22
2022-11-30T11:22:25.182Z,101571.19
2022-11-30T11:24:54.860Z,101569.25
2022-11-30T11:27:32.325Z,101565.22
2022-11-30T11:30:02.487Z,101570.09
2022-11-30T11:32:30.353Z,101570.84
2022-11-30T11:34:58.210Z,101553.06
2022-11-30T11:37:28.723Z,101565.84
2022-11-30T11:39:57.909Z,101564.34
2022-11-30T11:42:24.719Z,101536.66
2022-11-30T11:44:52.664Z,101567.06
2022-11-30T11:47:40.394Z,101563.84
2022-11-30T11:50:07.511Z,101570.09
2022-11-30T11:52:34.068Z,101562.78
2022-11-30T11:55:04.898Z,101569.25
2022-11-30T11:57:42.576Z,101544.06
2022-11-30T12:00:16.841Z,101574.91
2022-11-30T12:02:52.207Z,101574.72
2022-11-30T12:05:25.208Z,101578.88
2022-11-30T12:08:25.715Z,101577.78
2022-11-30T12:11:07.988Z,101586.53
2022-11-30T12:13:39.326Z,101558.25
2022-11-30T12:16:12.006Z,101589.47
2022-11-30T12:19:05.558Z,101591.78
2022-11-30T12:21:52.125Z,101592.53
2022-11-30T12:24:30.169Z,101588.69
2022-11-30T12:27:19.442Z,101595.03
2022-11-30T12:29:55.108Z,101596.41
2022-11-30T12:32:34.934Z,101595.00
2022-11-30T12:35:37.454Z,101590.34
2022-11-30T12:38:31.325Z,101591.13
2022-11-30T12:41:00.982Z,101595.91
2022-11-30T12:43:36.554Z,101596.59
2022-11-30T12:46:29.303Z,101591.13
2022-11-30T12:49:09.825Z,101588.94
2022-11-30T12:52:04.728Z,101594.34
2022-11-30T12:54:53.475Z,101603.09
2022-11-30T12:57:31.428Z,101599.06
2022-11-30T13:00:20.399Z,101604.16
2022-11-30T13:03:23.724Z,101604.72
2022-11-30T13:05:58.073Z,101610.06
2022-11-30T13:08:36.092Z,101542.16
2022-11-30T13:11:06.464Z,101609.69
2022-11-30T13:13:35.479Z,101601.56
2022-11-30T13:16:05.103Z,101604.00
2022-11-30T13:18:34.389Z,101557.47
2022-11-30T13:21:17.915Z,101608.00
2022-11-30T13:23:50.302Z,101597.41
2022-11-30T13:26:31.385Z,101603.41
2022-11-30T13:29:20.607Z,101604.75
2022-11-30T13:31:53.242Z,101599.84
2022-11-30T13:34:30.098Z,101575.53
2022-11-30T13:37:24.325Z,101607.03
2022-11-30T13:39:55.813Z,101604.63
2022-11-30T13:42:22.226Z,101608.88
2022-11-30T13:44:49.796Z,101596.59
2022-11-30T13:47:20.203Z,101600.59
2022-11-30T13:49:47.116Z,101606.31
2022-11-30T13:52:22.739Z,101595.47
2022-11-30T13:54:54.468Z,101584.13
2022-11-30T13:57:27.070Z,101611.50
2022-11-30T13:59:58.693Z,101614.78
2022-11-30T14:02:36.496Z,101611.66
2022-11-30T14:05:17.931Z,101608.75
2022-11-30T14:08:00.649Z,101609.28
2022-11-30T14:10:39.071Z,101618.19
2022-11-30T14:13:29.522Z,101612.84
2022-11-30T14:16:01.349Z,101609.34
2022-11-30T14:18:48.205Z,101625.47
2022-11-30T14:21:37.024Z,101613.88
2022-11-30T14:24:23.512Z,101615.19
2022-11-30T14:26:51.110Z,101611.75
2022-11-30T14:29:33.404Z,101583.56
2022-11-30T14:32:07.156Z,101591.13
2022-11-30T14:34:39.091Z,101623.78
2022-11-30T14:37:13.961Z,101625.75
2022-11-30T14:39:43.740Z,101630.94
2022-11-30T14:42:24.913Z,101633.06
2022-11-30T14:44:51.815Z,101634.34
2022-11-30T14:47:25.597Z,101633.84
2022-11-30T14:49:54.768Z,101635.16
2022-11-30T14:52:32.291Z,101633.84
2022-11-30T14:55:15.225Z,101638.72
2022-11-30T14:57:55.379Z,101639.53
2022-11-30T15:00:22.055Z,101644.00
2022-11-30T15:02:49.506Z,101645.69
2022-11-30T15:05:18.217Z,101652.28
2022-11-30T15:07:45.536Z,101648.78
2022-11-30T15:10:29.467Z,101649.25
2022-11-30T15:12:57.517Z,101654.16
2022-11-30T15:15:27.808Z,101644.09
2022-11-30T15:18:14.157Z,101645.56
2022-11-30T15:20:48.943Z,101638.44
2022-11-30T15:23:15.918Z,101645.53
2022-11-30T15:25:48.719Z,101641.53
2022-11-30T15:28:19.150Z,101637.19
2022-11-30T15:30:47.061Z,101643.75
2022-11-30T15:33:19.269Z,101640.91
2022-11-30T15:36:13.603Z,101613.88
2022-11-30T15:38:34.728Z,101621.22
2022-11-30T15:41:03.668Z,101638.34
2022-11-30T15:43:36.457Z,101619.63
2022-11-30T15:46:03.514Z,101664.91
2022-11-30T15:48:40.060Z,101648.56
2022-11-30T15:51:07.070Z,101635.13
2022-11-30T15:53:33.498Z,101652.34
2022-11-30T15:56:11.561Z,101660.50
2022-11-30T15:58:46.499Z,101656.31
2022-11-30T16:01:24.148Z,101664.78
2022-11-30T16:03:59.563Z,101663.28
2022-11-30T16:06:27.414Z,101658.53
2022-11-30T16:08:55.131Z,101667.94
2022-11-30T16:11:21.744Z,101660.09
2022-11-30T16:13:48.289Z,101661.56
2022-11-30T16:16:23.742Z,101681.72
2022-11-30T16:18:50.398Z,101667.91
2022-11-30T16:21:18.862Z,101670.56
2022-11-30T16:23:46.372Z,101671.13
2022-11-30T16:26:36.026Z,101674.94
2022-11-30T16:29:01.993Z,101680.44
2022-11-30T16:31:28.648Z,101674.75
2022-11-30T16:33:55.400Z,101676.91
2022-11-30T16:36:22.104Z,101674.25
2022-11-30T16:38:52.596Z,101664.59
2022-11-30T16:41:22.104Z,101634.00
2022-11-30T16:43:52.747Z,101674.53
2022-11-30T16:46:21.837Z,101679.66
2022-11-30T16:48:48.849Z,101700.03
2022-11-30T16:51:17.094Z,101665.81
2022-11-30T16:53:44.535Z,101687.53
2022-11-30T16:56:12.475Z,101692.94
2022-11-30T16:58:39.263Z,101692.16
2022-11-30T17:01:07.349Z,101631.31
2022-11-30T17:03:35.160Z,101699.00
2022-11-30T17:06:02.339Z,101698.06
2022-11-30T17:08:28.839Z,101694.63
2022-11-30T17:10:55.419Z,101643.47
2022-11-30T17:13:22.184Z,101706.97
2022-11-30T17:15:49.175Z,101708.47
2022-11-30T17:18:15.765Z,101701.34
2022-11-30T17:20:42.559Z,101705.63
2022-11-30T17:23:09.129Z,101707.81
2022-11-30T17:25:35.645Z,101699.47
2022-11-30T17:28:02.192Z,101710.56
2022-11-30T17:30:28.872Z,101712.19
2022-11-30T17:32:55.439Z,101662.81
2022-11-30T17:35:21.937Z,101661.34
2022-11-30T17:37:58.303Z,101716.38
2022-11-30T17:40:24.873Z,101734.44
2022-11-30T17:42:51.392Z,101726.66
2022-11-30T17:45:17.951Z,101701.94
2022-11-30T17:47:44.497Z,101692.63
2022-11-30T17:50:11.468Z,101727.28
2022-11-30T17:52:38.032Z,101721.66
2022-11-30T17:55:04.985Z,101729.94
2022-11-30T17:57:31.520Z,101735.59
2022-11-30T17:59:58.049Z,101735.03
2022-11-30T18:02:24.615Z,101701.00
2022-11-30T18:04:52.597Z,101737.88
2022-11-30T18:07:20.048Z,101716.72
2022-11-30T18:09:47.150Z,101736.06
2022-11-30T18:12:13.783Z,101745.66
2022-11-30T18:14:40.235Z,101754.56
2022-11-30T18:17:07.134Z,101721.38
2022-11-30T18:19:33.783Z,101748.59
2022-11-30T18:22:00.343Z,101750.22
2022-11-30T18:24:26.851Z,101759.75
2022-11-30T18:26:53.671Z,101742.19
2022-11-30T18:29:20.228Z,101721.63
2022-11-30T18:31:48.521Z,101766.31
2022-11-30T18:34:15.395Z,101771.41
2022-11-30T18:36:41.984Z,101763.19
2022-11-30T18:39:08.557Z,101774.78
2022-11-30T18:41:35.063Z,101726.81
2022-11-30T18:44:01.574Z,101769.88
2022-11-30T18:46:28.103Z,101771.13
2022-11-30T18:48:55.343Z,101771.59
2022-11-30T18:51:24.448Z,101772.59
2022-11-30T18:53:59.309Z,101772.06
2022-11-30T18:56:27.713Z,101731.00
2022-11-30T18:58:56.447Z,101772.75
2022-11-30T19:01:23.244Z,101751.53
2022-11-30T19:03:54.399Z,101775.31
2022-11-30T19:06:21.577Z,101782.03
2022-11-30T19:08:48.414Z,101779.53
2022-11-30T19:11:16.463Z,101768.38
2022-11-30T19:13:44.038Z,101758.09
2022-11-30T19:16:13.172Z,101776.19
2022-11-30T19:18:40.004Z,101780.88
2022-11-30T19:21:10.496Z,101780.41
2022-11-30T19:23:38.081Z,101779.28
2022-11-30T19:26:05.986Z,101776.06
2022-11-30T19:28:33.881Z,101788.91
2022-11-30T19:31:00.760Z,101781.47
2022-11-30T19:33:27.782Z,101781.09
2022-11-30T19:36:00.691Z,101784.53
2022-11-30T19:38:27.329Z,101782.81
2022-11-30T19:40:53.765Z,101786.50
2022-11-30T19:43:20.272Z,101720.00
2022-11-30T19:45:46.839Z,101798.41
2022-11-30T19:48:13.342Z,101757.13
2022-11-30T19:50:39.822Z,101787.44
2022-11-30T19:53:06.357Z,101779.94
2022-11-30T19:55:33.113Z,101798.34
2022-11-30T19:57:59.599Z,101796.06
2022-11-30T20:00:26.222Z,101787.03
2022-11-30T20:02:53.137Z,101790.00
2022-11-30T20:05:19.796Z,101797.75
2022-11-30T20:07:46.332Z,101761.13
2022-11-30T20:10:15.700Z,101751.53
2022-11-30T20:12:42.263Z,101800.41
2022-11-30T20:15:09.309Z,101802.34
2022-11-30T20:17:36.232Z,101774.84
2022-11-30T20:20:02.883Z,101808.13
2022-11-30T20:22:29.736Z,101815.81
2022-11-30T20:24:56.251Z,101799.84
2022-11-30T20:27:24.701Z,101814.66
2022-11-30T20:29:52.197Z,101815.59
2022-11-30T20:32:19.660Z,101813.34
2022-11-30T20:34:46.625Z,101769.19
2022-11-30T20:37:15.683Z,101810.28
2022-11-30T20:39:45.708Z,101794.53
2022-11-30T20:42:13.047Z,101817.88
2022-11-30T20:44:39.586Z,101821.59
2022-11-30T20:47:06.119Z,101819.13
2022-11-30T20:49:32.604Z,101743.56
2022-11-30T20:51:59.179Z,101813.50
2022-11-30T20:54:26.252Z,101787.63
2022-11-30T20:56:52.784Z,101812.88
2022-11-30T20:59:23.918Z,101817.00
2022-11-30T21:01:50.616Z,101770.50
2022-11-30T21:04:17.194Z,101794.13
2022-11-30T21:06:45.726Z,101818.97
2022-11-30T21:09:17.539Z,101821.47
2022-11-30T21:11:44.464Z,101819.75
2022-11-30T21:14:11.504Z,101820.22
2022-11-30T21:16:37.996Z,101821.56
2022-11-30T21:19:04.596Z,101812.34
2022-11-30T21:21:34.445Z,101827.09
2022-11-30T21:24:03.485Z,101834.28
2022-11-30T21:26:32.155Z,101822.47
2022-11-30T21:29:01.561Z,101833.16
2022-11-30T21:31:28.206Z,101817.84
2022-11-30T21:33:54.844Z,101827.16
2022-11-30T21:36:23.018Z,101825.28
2022-11-30T21:39:04.606Z,101830.69
2022-11-30T21:41:32.988Z,101785.47
2022-11-30T21:43:59.456Z,101814.84
2022-11-30T21:46:26.019Z,101821.00
2022-11-30T21:48:52.647Z,101818.09
2022-11-30T21:51:21.479Z,101822.63
2022-11-30T21:53:56.552Z,101828.34
2022-11-30T21:56:31.367Z,101833.34
2022-11-30T21:58:58.059Z,101815.53
2022-11-30T22:01:30.084Z,101821.69
2022-11-30T22:03:57.991Z,101825.50
2022-11-30T22:06:25.478Z,101823.34
2022-11-30T22:08:52.183Z,101814.41
2022-11-30T22:11:20.804Z,101821.06
2022-11-30T22:13:52.208Z,101746.47
2022-11-30T22:16:19.460Z,101819.03
2022-11-30T22:18:46.915Z,101809.16
2022-11-30T22:21:19.184Z,101827.00
2022-11-30T22:23:49.022Z,101767.03
2022-11-30T22:26:24.164Z,101816.84
2022-11-30T22:28:58.652Z,101821.13
2022-11-30T22:31:28.192Z,101727.66
2022-11-30T22:33:55.692Z,101820.28
2022-11-30T22:36:24.699Z,101827.09
2022-11-30T22:38:59.214Z,101722.03
2022-11-30T22:41:26.463Z,101825.84
2022-11-30T22:43:53.334Z,101823.78
2022-11-30T22:46:22.153Z,101783.59
2022-11-30T22:48:48.883Z,101799.38
2022-11-30T22:51:18.977Z,101825.34
2022-11-30T22:53:47.579Z,101826.25
2022-11-30T22:56:18.573Z,101825.28
2022-11-30T22:58:47.198Z,101825.34
2022-11-30T23:01:19.498Z,101831.06
2022-11-30T23:03:48.017Z,101816.22
2022-11-30T23:06:16.668Z,101825.59
2022-11-30T23:08:43.499Z,101821.03
2022-11-30T23:11:15.040Z,101778.53
2022-11-30T23:13:42.640Z,101817.38
2022-11-30T23:16:10.616Z,101830.25
2022-11-30T23:18:42.125Z,101823.41
2022-11-30T23:21:30.264Z,101819.66
2022-11-30T23:23:59.093Z,101812.22
2022-11-30T23:26:30.794Z,101818.88
2022-11-30T23:29:02.619Z,101809.72
2022-11-30T23:31:35.319Z,101743.75
2022-11-30T23:34:04.313Z,101815.38
2022-11-30T23:36:30.896Z,101820.63
2022-11-30T23:39:02.361Z,101745.69
2022-11-30T23:41:29.075Z,101826.31
2022-11-30T23:43:55.600Z,101828.44
2022-11-30T23:46:22.481Z,101829.19
2022-11-30T23:48:49.196Z,101826.53
2022-11-30T23:51:15.716Z,101822.25
2022-11-30T23:53:42.466Z,101789.84
2022-11-30T23:56:12.278Z,101820.59
2022-11-30T23:58:39.732Z,101776.72
